Turnersburg, North Carolina
Current Conditions -  °F | °C
As of 10:15 PM on Tuesday 21 Oct 2014 (Local Time) from KSVH Reporting Station
Clear Clear  
Wind Chill: 54°   Ceiling: Unl
Heat Index: 54°   Visibility: 10mi
Dew Point: 38°   Wind: 8mph
Humidity: 55%   Direction: 360°N
Pressure: 30"   Gusts: NA
Location:  35.91°N, 80.81°W
Report Text: KSVH 220215Z AUTO 36007KT 10SM CLR 12/04 A3000 RMK AO2 T01220035
Loading
Personal Weather Stations






























Interactive Weather Map
Tropical Storm Tracking
New forecast layout! Learn more

10-Day Weather Forecast

Advertisements
Track Severe Weather on mobile